createdAt,value
2022-09-15T00:01:56.990Z,2.20
2022-09-15T00:04:25.847Z,2.80
2022-09-15T00:06:56.398Z,2.67
2022-09-15T00:09:25.265Z,2.08
2022-09-15T00:11:54.114Z,2.47
2022-09-15T00:14:23.186Z,1.90
2022-09-15T00:16:52.204Z,1.85
2022-09-15T00:19:21.204Z,2.10
2022-09-15T00:21:50.208Z,2.40
2022-09-15T00:24:20.435Z,2.30
2022-09-15T00:26:49.262Z,2.00
2022-09-15T00:29:18.470Z,2.40
2022-09-15T00:31:47.341Z,3.22
2022-09-15T00:34:16.358Z,3.13
2022-09-15T00:36:45.437Z,2.20
2022-09-15T00:39:14.882Z,2.05
2022-09-15T00:41:45.289Z,2.28
2022-09-15T00:44:53.541Z,2.28
2022-09-15T00:47:25.600Z,2.10
2022-09-15T00:50:01.568Z,2.30
2022-09-15T00:52:40.127Z,3.22
2022-09-15T00:55:13.676Z,3.03
2022-09-15T00:57:49.110Z,2.33
2022-09-15T01:00:20.428Z,1.88
2022-09-15T01:02:50.481Z,1.95
2022-09-15T01:05:22.041Z,2.15
2022-09-15T01:07:55.738Z,2.65
2022-09-15T01:10:28.653Z,2.00
2022-09-15T01:13:02.873Z,2.70
2022-09-15T01:15:49.781Z,2.45
2022-09-15T01:18:30.189Z,2.58
2022-09-15T01:21:29.566Z,2.42
2022-09-15T01:24:40.893Z,2.10
2022-09-15T01:27:41.187Z,2.15
2022-09-15T01:30:15.432Z,1.83
2022-09-15T01:33:10.992Z,2.25
2022-09-15T01:35:52.730Z,2.53
2022-09-15T01:38:34.298Z,2.50
2022-09-15T01:41:08.519Z,2.45
2022-09-15T01:43:45.065Z,2.65
2022-09-15T01:46:18.018Z,2.95
2022-09-15T01:48:48.460Z,2.60
2022-09-15T01:51:17.926Z,2.30
2022-09-15T01:56:16.583Z,1.92
2022-09-15T01:58:45.566Z,2.42
2022-09-15T02:01:20.293Z,2.22
2022-09-15T02:03:55.457Z,2.42
2022-09-15T02:06:31.735Z,2.47
2022-09-15T02:09:04.110Z,2.88
2022-09-15T02:11:36.281Z,2.83
2022-09-15T02:14:12.854Z,2.13
2022-09-15T02:16:47.766Z,2.70
2022-09-15T02:19:21.582Z,2.53
2022-09-15T02:21:58.372Z,2.92
2022-09-15T02:24:32.557Z,2.85
2022-09-15T02:27:04.866Z,2.50
2022-09-15T02:29:37.311Z,2.75
2022-09-15T02:32:10.362Z,2.20
2022-09-15T02:34:42.597Z,2.70
2022-09-15T02:37:12.686Z,2.10
2022-09-15T02:39:46.669Z,2.53
2022-09-15T02:42:25.319Z,2.38
2022-09-15T02:44:54.449Z,2.30
2022-09-15T02:47:25.587Z,3.22
2022-09-15T02:49:54.460Z,2.75
2022-09-15T02:52:23.614Z,2.15
2022-09-15T02:54:52.602Z,2.03
2022-09-15T02:57:21.440Z,2.83
2022-09-15T03:00:22.547Z,2.88
2022-09-15T03:02:54.516Z,2.90
2022-09-15T03:05:25.270Z,2.85
2022-09-15T03:07:54.740Z,2.70
2022-09-15T03:12:55.723Z,2.40
2022-09-15T03:15:27.035Z,2.72
2022-09-15T03:17:57.410Z,2.72
2022-09-15T03:20:28.717Z,2.00
2022-09-15T03:22:57.925Z,2.63
2022-09-15T03:25:27.901Z,2.50
2022-09-15T03:27:56.817Z,2.10
2022-09-15T03:30:26.348Z,2.45
2022-09-15T03:35:25.476Z,2.33
2022-09-15T03:37:55.181Z,1.88
2022-09-15T03:42:53.190Z,2.63
2022-09-15T03:45:22.243Z,2.35
2022-09-15T03:47:51.231Z,2.50
2022-09-15T03:50:21.658Z,2.70
2022-09-15T03:52:50.670Z,2.72
2022-09-15T03:55:19.689Z,2.65
2022-09-15T03:57:48.522Z,2.17
2022-09-15T04:00:17.600Z,3.08
2022-09-15T04:02:46.736Z,2.28
2022-09-15T04:05:15.925Z,2.17
2022-09-15T04:10:15.215Z,2.10
2022-09-15T04:12:44.362Z,2.13
2022-09-15T04:15:13.406Z,3.45
2022-09-15T04:17:42.207Z,1.80
2022-09-15T04:20:11.842Z,1.70
2022-09-15T04:22:40.909Z,2.05
2022-09-15T04:25:12.123Z,2.10
2022-09-15T04:27:41.115Z,2.92
2022-09-15T04:30:11.111Z,2.25
2022-09-15T04:32:40.135Z,2.95
2022-09-15T04:35:09.921Z,1.95
2022-09-15T04:37:39.129Z,2.42
2022-09-15T04:40:11.454Z,2.65
2022-09-15T04:42:40.560Z,2.03
2022-09-15T04:45:10.678Z,1.83
2022-09-15T04:47:39.668Z,2.30
2022-09-15T04:50:09.059Z,2.42
2022-09-15T04:52:37.948Z,2.35
2022-09-15T04:55:07.416Z,2.20
2022-09-15T04:57:37.844Z,2.20
2022-09-15T05:00:08.655Z,2.40
2022-09-15T05:02:37.776Z,2.28
2022-09-15T05:05:07.437Z,2.03
2022-09-15T05:07:36.265Z,2.03
2022-09-15T05:10:05.846Z,2.03
2022-09-15T05:12:35.030Z,2.55
2022-09-15T05:15:06.035Z,3.33
2022-09-15T05:17:36.442Z,1.98
2022-09-15T05:20:06.164Z,2.70
2022-09-15T05:22:39.537Z,2.17
2022-09-15T05:25:11.199Z,3.13
2022-09-15T05:33:01.511Z,2.78
2022-09-15T05:35:30.571Z,2.05
2022-09-15T05:37:59.411Z,1.75
2022-09-15T05:40:28.570Z,2.92
2022-09-15T05:42:57.756Z,2.78
2022-09-15T05:45:27.984Z,2.17
2022-09-15T05:47:57.439Z,3.88
2022-09-15T05:50:26.652Z,3.17
2022-09-15T05:52:55.530Z,4.18
2022-09-15T05:55:24.846Z,3.28
2022-09-15T05:57:53.759Z,3.83
2022-09-15T06:00:22.738Z,3.00
2022-09-15T06:02:53.363Z,2.88
2022-09-15T06:05:22.288Z,2.72
2022-09-15T06:07:53.231Z,2.88
2022-09-15T06:10:24.991Z,2.65
2022-09-15T06:12:58.148Z,3.25
2022-09-15T06:15:27.636Z,3.20
2022-09-15T06:17:58.467Z,2.40
2022-09-15T06:20:27.980Z,2.63
2022-09-15T06:22:57.915Z,3.38
2022-09-15T06:25:28.701Z,2.25
2022-09-15T06:27:58.084Z,3.03
2022-09-15T06:30:27.155Z,2.80
2022-09-15T06:32:57.366Z,2.83
2022-09-15T06:35:26.204Z,3.25
2022-09-15T06:37:55.265Z,1.45
2022-09-15T06:40:24.457Z,3.08
2022-09-15T06:42:57.534Z,2.50
2022-09-15T06:45:27.139Z,3.90
2022-09-15T06:48:20.227Z,2.25
2022-09-15T06:50:53.898Z,2.45
2022-09-15T06:53:23.012Z,2.33
2022-09-15T06:58:20.818Z,2.30
2022-09-15T07:00:50.115Z,3.80
2022-09-15T07:03:20.809Z,2.22
2022-09-15T07:05:49.808Z,2.00
2022-09-15T07:08:18.673Z,1.42
2022-09-15T07:10:48.448Z,2.20
2022-09-15T07:13:17.299Z,2.03
2022-09-15T07:15:52.325Z,2.08
2022-09-15T07:18:22.868Z,2.65
2022-09-15T07:20:51.817Z,2.28
2022-09-15T07:23:21.014Z,2.40
2022-09-15T07:25:50.033Z,1.98
2022-09-15T07:28:19.197Z,2.47
2022-09-15T07:33:22.469Z,2.05
2022-09-15T07:35:51.378Z,1.65
2022-09-15T07:38:20.218Z,2.53
2022-09-15T07:40:49.377Z,1.67
2022-09-15T07:43:18.518Z,2.33
2022-09-15T07:45:47.841Z,2.55
2022-09-15T07:48:16.921Z,2.42
2022-09-15T07:50:49.564Z,1.60
2022-09-15T07:53:19.094Z,1.60
2022-09-15T07:55:52.563Z,1.30
2022-09-15T07:58:21.660Z,1.75
2022-09-15T08:00:50.624Z,2.38
2022-09-15T08:03:19.560Z,1.27
2022-09-15T08:05:50.050Z,1.58
2022-09-15T08:08:19.058Z,2.13
2022-09-15T08:10:47.936Z,1.48
2022-09-15T08:13:17.056Z,1.40
2022-09-15T08:15:46.300Z,1.58
2022-09-15T08:18:15.688Z,1.48
2022-09-15T08:25:44.290Z,1.88
2022-09-15T08:28:13.344Z,1.20
2022-09-15T08:30:42.271Z,1.98
2022-09-15T08:33:11.156Z,1.13
2022-09-15T08:35:40.192Z,1.50
2022-09-15T08:38:09.249Z,1.42
2022-09-15T08:40:44.490Z,1.63
2022-09-15T08:43:20.095Z,1.35
2022-09-15T08:45:54.420Z,1.45
2022-09-15T08:48:31.045Z,1.50
2022-09-15T08:51:05.029Z,1.17
2022-09-15T08:53:38.986Z,1.40
2022-09-15T08:56:17.117Z,1.48
2022-09-15T08:58:47.214Z,1.50
2022-09-15T09:01:30.053Z,1.33
2022-09-15T09:04:24.412Z,1.50
2022-09-15T09:07:04.598Z,2.25
2022-09-15T09:09:42.817Z,1.27
2022-09-15T09:12:41.114Z,1.75
2022-09-15T09:15:32.639Z,0.80
2022-09-15T09:18:18.906Z,1.10
2022-09-15T09:20:56.520Z,1.30
2022-09-15T09:23:28.662Z,0.90
2022-09-15T09:25:58.793Z,1.08
2022-09-15T09:28:33.491Z,1.60
2022-09-15T09:31:08.113Z,1.38
2022-09-15T09:33:47.511Z,1.27
2022-09-15T09:36:17.299Z,1.30
2022-09-15T09:41:19.751Z,2.00
2022-09-15T09:43:51.254Z,1.60
2022-09-15T09:46:22.240Z,2.00
2022-09-15T09:48:57.449Z,1.77
2022-09-15T09:51:51.931Z,1.40
2022-09-15T09:54:22.582Z,2.08
2022-09-15T09:56:52.642Z,1.27
2022-09-15T09:59:42.274Z,1.52
2022-09-15T10:02:22.862Z,1.83
2022-09-15T10:04:53.743Z,1.30
2022-09-15T10:07:26.699Z,1.50
2022-09-15T10:09:58.228Z,1.15
2022-09-15T10:12:32.126Z,2.65
2022-09-15T10:15:06.407Z,1.50
2022-09-15T10:17:43.907Z,1.25
2022-09-15T10:20:32.478Z,1.27
2022-09-15T10:23:07.331Z,1.67
2022-09-15T10:26:00.141Z,1.27
2022-09-15T10:28:28.906Z,1.17
2022-09-15T10:31:03.455Z,1.38
2022-09-15T10:33:35.096Z,1.13
2022-09-15T10:36:07.344Z,1.13
2022-09-15T10:38:42.256Z,1.40
2022-09-15T10:41:21.893Z,2.63
2022-09-15T10:44:10.924Z,1.48
2022-09-15T10:46:50.379Z,1.80
2022-09-15T10:49:35.017Z,1.58
2022-09-15T10:52:15.015Z,2.05
2022-09-15T10:55:31.843Z,1.90
2022-09-15T10:58:31.325Z,1.70
2022-09-15T11:01:17.761Z,1.45
2022-09-15T11:04:09.310Z,1.10
2022-09-15T11:06:48.443Z,1.52
2022-09-15T11:09:25.832Z,1.10
2022-09-15T11:12:12.054Z,1.65
2022-09-15T11:14:52.691Z,1.70
2022-09-15T11:17:43.912Z,1.10
2022-09-15T11:20:39.587Z,1.00
2022-09-15T11:23:15.740Z,1.13
2022-09-15T11:25:48.301Z,0.88
2022-09-15T11:28:23.762Z,1.02
2022-09-15T11:31:00.811Z,1.20
2022-09-15T11:33:35.827Z,0.80
2022-09-15T11:36:10.820Z,1.40
2022-09-15T11:38:48.008Z,1.05
2022-09-15T11:41:25.156Z,1.00
2022-09-15T11:44:08.623Z,0.90
2022-09-15T11:46:58.614Z,1.00
2022-09-15T11:49:32.552Z,0.93
2022-09-15T11:52:10.037Z,0.90
2022-09-15T11:54:46.560Z,0.95
2022-09-15T11:57:21.524Z,1.48
2022-09-15T11:59:58.984Z,1.15
2022-09-15T12:02:34.175Z,1.33
2022-09-15T12:05:11.471Z,1.63
2022-09-15T12:07:47.906Z,0.77
2022-09-15T12:10:21.904Z,1.13
2022-09-15T12:12:52.561Z,0.80
2022-09-15T12:15:27.377Z,1.25
2022-09-15T12:18:27.331Z,0.80
2022-09-15T12:21:04.182Z,0.60
2022-09-15T12:23:40.702Z,0.82
2022-09-15T12:26:18.892Z,1.45
2022-09-15T12:29:02.220Z,1.42
2022-09-15T12:31:39.943Z,0.77
2022-09-15T12:34:37.246Z,1.30
2022-09-15T12:37:14.192Z,0.70
2022-09-15T12:39:45.746Z,1.00
2022-09-15T12:42:20.852Z,0.77
2022-09-15T12:44:55.968Z,0.70
2022-09-15T12:47:32.863Z,0.70
2022-09-15T12:50:10.128Z,1.40
2022-09-15T12:52:49.337Z,1.00
2022-09-15T12:57:58.166Z,0.80
2022-09-15T13:00:36.043Z,0.60
2022-09-15T13:03:07.916Z,0.80
2022-09-15T13:05:55.120Z,0.95
2022-09-15T13:08:53.029Z,1.23
2022-09-15T13:11:34.608Z,0.75
2022-09-15T13:14:16.320Z,1.00
2022-09-15T13:16:53.098Z,1.05
2022-09-15T13:19:25.633Z,1.10
2022-09-15T13:22:02.579Z,0.90
2022-09-15T13:24:45.196Z,1.40
2022-09-15T13:27:19.628Z,1.13
2022-09-15T13:29:53.727Z,1.00
2022-09-15T13:32:39.829Z,0.90
2022-09-15T13:35:48.185Z,0.60
2022-09-15T13:38:52.415Z,1.73
2022-09-15T13:41:40.201Z,1.30
2022-09-15T13:44:51.977Z,1.10
2022-09-15T13:47:39.722Z,1.23
2022-09-15T13:50:15.966Z,1.17
2022-09-15T13:53:04.185Z,1.50
2022-09-15T13:55:38.595Z,1.10
2022-09-15T14:01:07.614Z,2.17
2022-09-15T14:03:43.415Z,0.70
2022-09-15T14:06:20.537Z,2.20
2022-09-15T14:08:54.098Z,1.33
2022-09-15T14:11:29.815Z,1.30
2022-09-15T14:14:00.619Z,1.25
2022-09-15T14:16:36.502Z,1.15
2022-09-15T14:19:24.836Z,1.17
2022-09-15T14:21:58.311Z,1.33
2022-09-15T14:24:30.072Z,1.58
2022-09-15T14:27:03.465Z,1.70
2022-09-15T14:29:32.655Z,1.08
2022-09-15T14:32:04.002Z,1.48
2022-09-15T14:34:37.253Z,1.00
2022-09-15T14:37:08.898Z,1.25
2022-09-15T14:39:40.287Z,1.00
2022-09-15T14:42:21.805Z,1.85
2022-09-15T14:47:44.193Z,0.93
2022-09-15T14:50:17.537Z,0.88
2022-09-15T14:52:51.266Z,0.88
2022-09-15T14:55:25.755Z,1.08
2022-09-15T14:58:00.854Z,0.90
2022-09-15T15:00:34.931Z,1.02
2022-09-15T15:03:19.648Z,1.02
2022-09-15T15:06:02.873Z,1.35
2022-09-15T15:08:42.118Z,1.33
2022-09-15T15:11:15.251Z,1.02
2022-09-15T15:13:47.396Z,0.88
2022-09-15T15:16:22.274Z,1.30
2022-09-15T15:18:56.191Z,1.15
2022-09-15T15:21:43.330Z,1.67
2022-09-15T15:24:24.154Z,0.77
2022-09-15T15:26:53.407Z,1.20
2022-09-15T15:29:43.976Z,0.93
2022-09-15T15:32:16.106Z,1.10
2022-09-15T15:34:56.034Z,1.55
2022-09-15T15:37:30.116Z,1.27
2022-09-15T15:40:02.203Z,0.80
2022-09-15T15:42:31.555Z,0.70
2022-09-15T15:45:05.270Z,2.28
2022-09-15T15:47:38.171Z,0.98
2022-09-15T15:50:20.813Z,1.02
2022-09-15T15:52:51.465Z,1.25
2022-09-15T15:55:21.693Z,0.77
2022-09-15T15:57:52.443Z,1.00
2022-09-15T16:00:24.466Z,1.13
2022-09-15T16:02:54.724Z,1.15
2022-09-15T16:05:29.326Z,0.98
2022-09-15T16:08:01.911Z,1.20
2022-09-15T16:10:37.761Z,1.05
2022-09-15T16:13:07.229Z,1.60
2022-09-15T16:15:36.460Z,1.25
2022-09-15T16:20:37.049Z,1.38
2022-09-15T16:23:06.597Z,1.67
2022-09-15T16:25:39.904Z,1.65
2022-09-15T16:28:09.101Z,2.08
2022-09-15T16:30:38.032Z,1.40
2022-09-15T16:35:40.456Z,1.35
2022-09-15T16:38:10.146Z,1.67
2022-09-15T16:40:39.493Z,1.67
2022-09-15T16:43:14.850Z,1.40
2022-09-15T16:45:45.270Z,1.80
2022-09-15T16:48:14.602Z,2.38
2022-09-15T16:51:01.201Z,2.03
2022-09-15T16:53:34.428Z,1.60
2022-09-15T16:56:03.770Z,1.48
2022-09-15T17:01:01.645Z,2.60
2022-09-15T17:03:30.866Z,1.90
2022-09-15T17:06:04.534Z,1.30
2022-09-15T17:08:34.321Z,1.70
2022-09-15T17:11:05.181Z,2.08
2022-09-15T17:13:35.400Z,2.65
2022-09-15T17:16:04.957Z,1.60
2022-09-15T17:18:34.048Z,1.58
2022-09-15T17:21:04.816Z,1.67
2022-09-15T17:23:37.980Z,2.20
2022-09-15T17:26:11.512Z,2.45
2022-09-15T17:28:41.156Z,2.03
2022-09-15T17:31:15.762Z,1.75
2022-09-15T17:33:45.308Z,1.90
2022-09-15T17:36:16.623Z,1.92
2022-09-15T17:38:46.014Z,1.83
2022-09-15T17:41:16.306Z,2.08
2022-09-15T17:43:45.668Z,2.63
2022-09-15T17:46:15.109Z,1.92
2022-09-15T17:48:44.177Z,2.53
2022-09-15T17:51:18.334Z,2.17
2022-09-15T17:53:47.854Z,1.73
2022-09-15T17:58:47.287Z,2.05
2022-09-15T18:06:18.233Z,2.10
2022-09-15T18:08:47.368Z,2.40
2022-09-15T18:11:16.830Z,2.17
2022-09-15T18:13:46.098Z,3.22
2022-09-15T18:18:44.886Z,2.30
2022-09-15T18:21:26.994Z,2.17
2022-09-15T18:23:56.523Z,2.20
2022-09-15T18:26:26.845Z,2.80
2022-09-15T18:28:58.463Z,2.90
2022-09-15T18:31:27.661Z,2.88
2022-09-15T18:33:56.902Z,2.22
2022-09-15T18:36:27.976Z,2.78
2022-09-15T18:38:57.715Z,2.42
2022-09-15T18:41:27.898Z,2.72
2022-09-15T18:43:57.803Z,2.83
2022-09-15T18:46:26.724Z,2.72
2022-09-15T18:48:55.624Z,2.67
2022-09-15T18:51:40.880Z,3.05
2022-09-15T18:54:15.813Z,2.80
2022-09-15T18:56:46.500Z,2.40
2022-09-15T18:59:17.802Z,2.67
2022-09-15T19:01:48.559Z,3.10
2022-09-15T19:04:17.805Z,3.35
2022-09-15T19:09:17.769Z,3.13
2022-09-15T19:11:47.835Z,3.05
2022-09-15T19:14:19.002Z,2.42
2022-09-15T19:16:57.508Z,3.25
2022-09-15T19:19:27.986Z,3.88
2022-09-15T19:24:33.525Z,2.45
2022-09-15T19:27:03.906Z,2.05
2022-09-15T19:29:35.794Z,2.95
2022-09-15T19:32:06.715Z,2.35
2022-09-15T19:34:36.608Z,2.70
2022-09-15T19:37:10.292Z,3.95
2022-09-15T19:39:43.197Z,2.50
2022-09-15T19:42:13.003Z,3.63
2022-09-15T19:44:43.778Z,3.63
2022-09-15T19:47:13.283Z,2.42
2022-09-15T19:49:42.254Z,2.60
2022-09-15T19:52:12.894Z,1.98
2022-09-15T19:54:43.802Z,2.20
2022-09-15T19:57:13.516Z,1.90
2022-09-15T19:59:44.905Z,2.10
2022-09-15T20:02:14.046Z,1.88
2022-09-15T20:04:43.304Z,1.92
2022-09-15T20:07:12.606Z,2.00
2022-09-15T20:12:12.272Z,2.63
2022-09-15T20:14:42.208Z,2.45
2022-09-15T20:17:11.464Z,2.35
2022-09-15T20:19:40.346Z,2.15
2022-09-15T20:22:09.402Z,2.00
2022-09-15T20:24:38.596Z,1.38
2022-09-15T20:27:09.164Z,2.22
2022-09-15T20:29:38.714Z,3.05
2022-09-15T20:32:08.127Z,1.80
2022-09-15T20:34:37.032Z,4.10
2022-09-15T20:37:05.909Z,1.50
2022-09-15T20:39:35.370Z,1.88
2022-09-15T20:42:04.389Z,1.45
2022-09-15T20:44:34.610Z,1.85
2022-09-15T20:47:04.042Z,1.80
2022-09-15T20:49:33.009Z,1.83
2022-09-15T20:52:02.007Z,1.73
2022-09-15T20:54:31.207Z,1.33
2022-09-15T20:57:00.267Z,1.73
2022-09-15T20:59:29.209Z,1.55
2022-09-15T21:01:59.712Z,2.72
2022-09-15T21:04:28.667Z,2.53
2022-09-15T21:06:57.809Z,2.05
2022-09-15T21:09:27.005Z,1.92
2022-09-15T21:11:56.033Z,2.55
2022-09-15T21:14:25.017Z,1.65
2022-09-15T21:16:54.446Z,1.83
2022-09-15T21:19:24.684Z,1.88
2022-09-15T21:21:54.640Z,2.20
2022-09-15T21:24:23.993Z,1.80
2022-09-15T21:27:10.774Z,1.73
2022-09-15T21:29:39.919Z,1.50
2022-09-15T21:32:09.299Z,1.20
2022-09-15T21:37:08.408Z,2.03
2022-09-15T21:39:37.225Z,1.83
2022-09-15T21:42:06.671Z,2.08
2022-09-15T21:44:35.809Z,1.73
2022-09-15T21:47:04.716Z,1.73
2022-09-15T21:49:33.681Z,1.63
2022-09-15T21:52:04.331Z,2.03
2022-09-15T21:54:33.543Z,1.80
2022-09-15T21:57:02.495Z,2.05
2022-09-15T21:59:31.583Z,1.13
2022-09-15T22:02:00.902Z,1.15
2022-09-15T22:04:29.795Z,1.38
2022-09-15T22:06:58.986Z,2.55
2022-09-15T22:09:29.302Z,1.58
2022-09-15T22:11:58.137Z,1.80
2022-09-15T22:14:27.279Z,1.40
2022-09-15T22:16:56.442Z,1.83
2022-09-15T22:19:25.752Z,1.40
2022-09-15T22:24:23.658Z,2.08
2022-09-15T22:26:53.845Z,1.65
2022-09-15T22:29:22.954Z,2.30
2022-09-15T22:31:51.932Z,1.15
2022-09-15T22:34:20.885Z,2.10
2022-09-15T22:36:50.054Z,1.63
2022-09-15T22:39:18.904Z,1.38
2022-09-15T22:41:47.913Z,1.35
2022-09-15T22:44:22.092Z,1.30
2022-09-15T22:46:51.444Z,2.72
2022-09-15T22:51:49.206Z,1.92
2022-09-15T22:54:18.182Z,1.50
2022-09-15T22:56:47.681Z,1.50
2022-09-15T22:59:17.058Z,1.92
2022-09-15T23:01:48.657Z,1.60
2022-09-15T23:04:18.158Z,1.65
2022-09-15T23:09:18.404Z,1.30
2022-09-15T23:11:47.301Z,2.50
2022-09-15T23:14:18.038Z,1.63
2022-09-15T23:16:48.601Z,1.55
2022-09-15T23:19:17.728Z,2.38
2022-09-15T23:21:47.179Z,1.00
2022-09-15T23:24:17.126Z,1.40
2022-09-15T23:26:46.311Z,1.73
2022-09-15T23:29:15.295Z,1.50
2022-09-15T23:31:44.485Z,2.22
2022-09-15T23:34:14.709Z,1.98
2022-09-15T23:36:43.700Z,2.40
2022-09-15T23:39:12.768Z,0.80
2022-09-15T23:41:41.935Z,1.52
2022-09-15T23:44:10.971Z,1.55
2022-09-15T23:46:40.098Z,1.67
2022-09-15T23:49:09.320Z,1.50
2022-09-15T23:51:39.531Z,1.52
2022-09-15T23:54:08.571Z,1.10
2022-09-15T23:56:37.408Z,2.53
2022-09-15T23:59:06.382Z,1.65
